Time;durP1;ratioP1;P1;durP2;ratioP2;P2;SDS_P1;SDS_P2;PMS_P1;PMS_P2;Temp;Humidity;BMP_temperature;BMP_pressure;BME280_temperature;BME280_humidity;BME280_pressure;Samples;Min_cycle;Max_cycle;Signal;HPM_P1;HPM_P2
2021/03/24 00:00:11;;;;;;;6.87;3.27;;;4.90;61.50;;;;;;4964222;28;20474;-83
2021/03/24 00:02:37;;;;;;;12.03;3.43;;;4.80;61.50;;;;;;4968588;28;20031;-83
2021/03/24 00:05:11;;;;;;;8.43;3.60;;;4.80;61.80;;;;;;4972459;28;20345;-83
2021/03/24 00:07:37;;;;;;;6.90;3.40;;;4.80;61.70;;;;;;4969037;28;20499;-83
2021/03/24 00:10:04;;;;;;;9.10;4.33;;;4.70;61.70;;;;;;4984838;28;20026;-83
2021/03/24 00:12:30;;;;;;;5.90;3.47;;;4.70;61.90;;;;;;4990222;28;20117;-83
2021/03/24 00:14:56;;;;;;;7.10;3.50;;;4.70;61.90;;;;;;4975932;28;20446;-83
2021/03/24 00:17:21;;;;;;;6.50;3.47;;;4.60;62.00;;;;;;4975486;28;20031;-84
2021/03/24 00:19:47;;;;;;;6.57;2.80;;;4.60;62.00;;;;;;4973914;28;20034;-83
2021/03/24 00:22:13;;;;;;;5.60;2.63;;;4.60;62.00;;;;;;4975677;28;20029;-83
2021/03/24 00:24:38;;;;;;;9.33;3.00;;;4.60;62.00;;;;;;4973862;28;20502;-83
2021/03/24 00:27:05;;;;;;;7.30;3.90;;;4.70;62.00;;;;;;4973952;28;20027;-83
2021/03/24 00:29:30;;;;;;;15.53;3.80;;;4.70;62.00;;;;;;4972868;28;20483;-83
2021/03/24 00:31:56;;;;;;;6.83;3.40;;;4.70;62.10;;;;;;4956614;28;20019;-83
2021/03/24 00:34:22;;;;;;;9.57;3.37;;;4.60;62.00;;;;;;4970255;28;20106;-83
2021/03/24 00:36:48;;;;;;;5.97;2.93;;;4.60;62.00;;;;;;4991668;28;20049;-84
2021/03/24 00:39:17;;;;;;;6.23;3.37;;;4.50;62.20;;;;;;4974245;28;20026;-83
2021/03/24 00:41:43;;;;;;;6.10;2.67;;;4.50;62.40;;;;;;4974292;28;20138;-83
2021/03/24 00:44:09;;;;;;;7.80;3.40;;;4.50;62.40;;;;;;4974183;28;20493;-83
2021/03/24 00:46:34;;;;;;;8.17;4.80;;;4.50;62.50;;;;;;4980215;28;20137;-84
2021/03/24 00:49:00;;;;;;;9.50;5.17;;;4.50;62.30;;;;;;4987997;28;20142;-84
2021/03/24 00:51:26;;;;;;;11.53;6.17;;;4.50;62.30;;;;;;4976868;28;20145;-83
2021/03/24 00:53:51;;;;;;;10.20;5.70;;;4.50;62.40;;;;;;4981633;28;20062;-84
2021/03/24 00:56:17;;;;;;;9.17;3.50;;;4.50;62.50;;;;;;4976163;28;20094;-84
2021/03/24 00:58:43;;;;;;;7.00;3.23;;;4.50;62.50;;;;;;4976218;28;20030;-85
2021/03/24 01:01:08;;;;;;;6.50;3.10;;;4.60;62.40;;;;;;4978582;28;20066;-84
2021/03/24 01:03:36;;;;;;;8.00;3.17;;;4.60;62.40;;;;;;4973438;28;20402;-84
2021/03/24 01:06:02;;;;;;;10.07;3.63;;;4.60;62.30;;;;;;4962781;28;20122;-85
2021/03/24 01:08:28;;;;;;;14.60;3.70;;;4.60;62.40;;;;;;4965046;28;20035;-84
2021/03/24 01:10:56;;;;;;;8.20;3.60;;;4.60;62.20;;;;;;4988854;28;20035;-84
2021/03/24 01:13:23;;;;;;;12.23;3.93;;;4.60;62.20;;;;;;4973251;28;20475;-85
2021/03/24 01:15:49;;;;;;;7.83;3.80;;;4.60;62.20;;;;;;4975067;28;20038;-85
2021/03/24 01:18:16;;;;;;;10.97;4.27;;;4.60;62.30;;;;;;4976178;28;20038;-85
2021/03/24 01:20:43;;;;;;;11.87;4.07;;;4.50;62.20;;;;;;4957568;28;20038;-85
2021/03/24 01:23:10;;;;;;;9.00;3.63;;;4.50;62.30;;;;;;4970969;28;20043;-85
2021/03/24 01:25:37;;;;;;;10.20;4.17;;;4.50;62.30;;;;;;4973684;28;20482;-85
2021/03/24 01:28:05;;;;;;;9.67;4.43;;;4.50;62.30;;;;;;4973859;28;20444;-84
2021/03/24 01:30:32;;;;;;;8.87;4.30;;;4.40;62.30;;;;;;4968540;28;20028;-84
2021/03/24 01:32:58;;;;;;;9.77;4.90;;;4.40;62.70;;;;;;4987613;28;20105;-85
2021/03/24 01:35:25;;;;;;;7.47;3.90;;;4.50;62.80;;;;;;4955431;28;20062;-84
2021/03/24 01:37:52;;;;;;;8.77;4.73;;;4.60;62.60;;;;;;4963586;28;20113;-84
2021/03/24 01:40:29;;;;;;;7.57;3.80;;;4.60;62.50;;;;;;4963497;28;20380;-84
2021/03/24 01:42:58;;;;;;;7.80;4.33;;;4.50;62.30;;;;;;4970088;28;20113;-84
2021/03/24 01:45:23;;;;;;;9.77;4.60;;;4.50;62.50;;;;;;4968647;28;20039;-84
2021/03/24 01:47:50;;;;;;;9.70;4.60;;;4.50;62.70;;;;;;4967149;28;20039;-84
2021/03/24 01:50:30;;;;;;;9.10;5.10;;;4.50;62.60;;;;;;4960771;28;20058;-83
2021/03/24 01:52:56;;;;;;;8.43;5.20;;;4.50;62.50;;;;;;4983697;28;20031;-83
2021/03/24 01:55:23;;;;;;;12.97;4.97;;;4.40;62.50;;;;;;4982004;28;20034;-83
2021/03/24 01:57:49;;;;;;;10.80;5.07;;;4.40;62.60;;;;;;4972072;28;20038;-83
2021/03/24 02:00:23;;;;;;;6.73;4.40;;;4.40;62.70;;;;;;4968033;28;20042;-83
2021/03/24 02:02:48;;;;;;;7.67;4.10;;;4.30;62.80;;;;;;4968881;28;20094;-84
2021/03/24 02:05:14;;;;;;;7.90;3.70;;;4.30;62.80;;;;;;4968614;28;20031;-83
2021/03/24 02:07:51;;;;;;;7.50;3.87;;;4.30;62.90;;;;;;4965192;28;20109;-84
2021/03/24 02:10:36;;;;;;;6.73;3.53;;;4.40;62.90;;;;;;4972749;28;20391;-84
2021/03/24 02:13:15;;;;;;;9.77;4.17;;;4.30;62.90;;;;;;4972358;28;20030;-85
2021/03/24 02:15:58;;;;;;;5.83;3.70;;;4.30;62.90;;;;;;4973310;28;20031;-84
2021/03/24 02:18:26;;;;;;;;;;;4.30;62.70;;;;;;4971223;28;20062;-84
2021/03/24 02:21:20;;;;;;;8.07;3.83;;;4.30;62.80;;;;;;4968990;28;19906;-84
2021/03/24 02:23:57;;;;;;;11.23;3.70;;;4.30;62.50;;;;;;4963751;28;20043;-84
2021/03/24 02:26:39;;;;;;;8.33;3.97;;;4.20;62.40;;;;;;4968288;28;20458;-84
2021/03/24 02:29:06;;;;;;;7.87;3.63;;;4.20;62.60;;;;;;4961918;28;20391;-84
2021/03/24 02:31:34;;;;;;;9.40;3.97;;;4.20;62.90;;;;;;4971426;28;20451;-84
2021/03/24 02:34:05;;;;;;;8.97;3.67;;;4.20;62.70;;;;;;4968529;28;20054;-84
2021/03/24 02:36:32;;;;;;;9.73;3.67;;;4.20;62.70;;;;;;4969351;28;20033;-84
2021/03/24 02:39:01;;;;;;;8.97;4.03;;;4.30;62.90;;;;;;4970316;28;20026;-84
2021/03/24 02:41:28;;;;;;;5.63;3.07;;;4.40;62.60;;;;;;4988620;28;20031;-85
2021/03/24 02:43:55;;;;;;;6.53;3.40;;;4.40;62.30;;;;;;4969477;28;20379;-85
2021/03/24 02:46:22;;;;;;;7.30;4.17;;;4.30;62.40;;;;;;4967188;28;20483;-85
2021/03/24 02:48:48;;;;;;;7.33;2.90;;;4.30;62.80;;;;;;4967995;28;20046;-85
2021/03/24 02:51:21;;;;;;;6.20;3.00;;;4.30;62.70;;;;;;4969430;28;21812;-85
2021/03/24 02:53:48;;;;;;;5.70;3.13;;;4.40;63.10;;;;;;4965898;28;20027;-86
2021/03/24 02:56:14;;;;;;;9.47;4.27;;;4.40;63.00;;;;;;4974878;28;20123;-85
2021/03/24 02:58:40;;;;;;;8.80;3.43;;;4.50;62.60;;;;;;4973645;28;20054;-85
2021/03/24 03:01:16;;;;;;;8.00;4.20;;;4.40;62.60;;;;;;4966138;28;20046;-84
2021/03/24 03:03:53;;;;;;;6.70;3.67;;;4.30;62.40;;;;;;4969985;28;20027;-85
2021/03/24 03:06:22;;;;;;;8.77;5.30;;;4.20;62.90;;;;;;4963068;28;20043;-83
2021/03/24 03:08:58;;;;;;;10.87;5.10;;;4.30;62.90;;;;;;4975546;28;20031;-82
2021/03/24 03:11:35;;;;;;;10.33;6.17;;;4.40;63.30;;;;;;4975297;28;20031;-84
2021/03/24 03:14:14;;;;;;;10.03;5.07;;;4.40;63.00;;;;;;4968521;28;20018;-83
2021/03/24 03:16:39;;;;;;;11.83;5.93;;;4.50;63.20;;;;;;4969626;28;20089;-83
2021/03/24 03:19:24;;;;;;;11.57;7.37;;;4.50;62.90;;;;;;4972014;28;20050;-83
2021/03/24 03:21:58;;;;;;;10.93;5.97;;;4.60;63.00;;;;;;4967454;28;20027;-83
2021/03/24 03:24:29;;;;;;;7.43;4.10;;;4.60;63.10;;;;;;4964330;28;20027;-83
2021/03/24 03:26:58;;;;;;;7.37;4.17;;;4.60;62.70;;;;;;4972444;28;20031;-83
2021/03/24 03:29:25;;;;;;;7.97;3.43;;;4.60;62.70;;;;;;4981777;28;20024;-83
2021/03/24 03:31:52;;;;;;;10.47;4.40;;;4.50;62.70;;;;;;4963805;28;20034;-83
2021/03/24 03:34:21;;;;;;;10.73;4.40;;;4.40;63.00;;;;;;4987498;28;20023;-84
2021/03/24 03:36:51;;;;;;;6.93;4.23;;;4.40;62.90;;;;;;4975220;28;20038;-84
2021/03/24 03:39:21;;;;;;;7.97;4.93;;;4.40;62.80;;;;;;4959414;28;20504;-84
2021/03/24 03:41:48;;;;;;;9.57;4.43;;;4.40;62.70;;;;;;4974091;28;20390;-84
2021/03/24 03:44:16;;;;;;;8.57;3.53;;;4.40;62.60;;;;;;4966787;28;20180;-85
2021/03/24 03:46:52;;;;;;;5.80;4.00;;;4.30;62.50;;;;;;4971757;28;20391;-84
2021/03/24 03:49:19;;;;;;;9.87;3.97;;;4.30;62.60;;;;;;4964817;28;20022;-81
2021/03/24 03:51:45;;;;;;;8.07;4.63;;;4.30;62.60;;;;;;4966141;28;20058;-81
2021/03/24 03:54:19;;;;;;;8.53;3.97;;;4.20;62.40;;;;;;4972838;28;20424;-81
2021/03/24 03:57:09;;;;;;;10.70;4.77;;;4.30;62.50;;;;;;4965137;28;20035;-79
2021/03/24 03:59:35;;;;;;;10.23;4.33;;;4.20;62.50;;;;;;4970368;28;20121;-80
2021/03/24 04:02:05;;;;;;;10.00;4.97;;;4.30;62.50;;;;;;4973936;28;20054;-81
2021/03/24 04:04:48;;;;;;;11.40;5.80;;;4.20;62.30;;;;;;4970305;28;20030;-81
2021/03/24 04:07:14;;;;;;;;;;;4.10;62.30;;;;;;4972586;28;20073;-80
2021/03/24 04:09:41;;;;;;;16.10;8.03;;;4.10;62.30;;;;;;4962341;28;19930;-80
2021/03/24 04:12:12;;;;;;;14.20;6.73;;;4.10;62.40;;;;;;4956586;28;20082;-81
2021/03/24 04:14:40;;;;;;;20.77;8.90;;;4.10;62.40;;;;;;4971079;28;20069;-81
2021/03/24 04:17:11;;;;;;;14.80;7.43;;;4.10;62.40;;;;;;4972691;28;20125;-81
2021/03/24 04:19:43;;;;;;;19.43;8.73;;;4.00;62.40;;;;;;4964865;28;20065;-81
2021/03/24 04:22:09;;;;;;;17.47;9.23;;;4.00;62.30;;;;;;4970993;28;20352;-81
2021/03/24 04:24:45;;;;;;;16.97;8.57;;;3.90;62.40;;;;;;4973544;28;20030;-80
2021/03/24 04:27:14;;;;;;;12.87;6.53;;;3.90;62.80;;;;;;4974335;28;20049;-80
2021/03/24 04:29:47;;;;;;;15.97;8.93;;;3.90;62.90;;;;;;4973933;28;20027;-80
2021/03/24 04:32:13;;;;;;;14.70;7.83;;;3.80;62.90;;;;;;4972716;28;20406;-80
2021/03/24 04:34:40;;;;;;;21.27;11.70;;;3.80;63.00;;;;;;4966171;28;20026;-80
2021/03/24 04:37:25;;;;;;;20.83;11.23;;;3.80;63.20;;;;;;4967786;28;20029;-80
2021/03/24 04:40:27;;;;;;;12.60;7.47;;;3.70;63.00;;;;;;4972663;28;20439;-80
2021/03/24 04:43:10;;;;;;;11.87;6.43;;;3.70;63.00;;;;;;4960397;28;20035;-80
2021/03/24 04:45:42;;;;;;;10.32;4.68;;;3.70;63.20;;;;;;4988142;28;20070;-79
2021/03/24 04:48:24;;;;;;;11.15;4.53;;;3.60;63.10;;;;;;4976532;28;20031;-79
2021/03/24 04:51:04;;;;;;;7.67;4.03;;;3.60;63.10;;;;;;4968707;28;20027;-79
2021/03/24 04:53:35;;;;;;;8.17;4.20;;;3.60;63.10;;;;;;4970837;28;20487;-79
2021/03/24 04:56:02;;;;;;;8.83;4.20;;;3.50;62.80;;;;;;4985423;28;20062;-80
2021/03/24 04:58:40;;;;;;;10.60;4.47;;;3.50;62.90;;;;;;4970311;28;20379;-80
2021/03/24 05:01:34;;;;;;;9.80;4.53;;;3.50;62.90;;;;;;4965980;28;20035;-80
2021/03/24 05:04:06;;;;;;;8.80;5.13;;;3.50;62.90;;;;;;4955414;28;20432;-80
2021/03/24 05:06:38;;;;;;;13.13;4.68;;;3.50;62.90;;;;;;4959083;28;20047;-82
2021/03/24 05:09:09;;;;;;;12.18;5.70;;;3.40;62.90;;;;;;4972679;28;20054;-81
2021/03/24 05:11:44;;;;;;;8.47;5.40;;;3.40;62.80;;;;;;4972557;28;20387;-80
2021/03/24 05:14:18;;;;;;;19.63;5.50;;;3.40;63.00;;;;;;4967964;28;20106;-80
2021/03/24 05:16:47;;;;;;;15.13;6.87;;;3.30;63.30;;;;;;4972667;28;20435;-81
2021/03/24 05:19:25;;;;;;;14.80;7.13;;;3.30;63.40;;;;;;4957379;28;20041;-81
2021/03/24 05:22:08;;;;;;;16.03;7.33;;;3.40;63.50;;;;;;4973485;28;20070;-82
2021/03/24 05:24:37;;;;;;;9.17;5.67;;;3.40;63.50;;;;;;4971464;28;20506;-81
2021/03/24 05:27:32;;;;;;;11.03;6.07;;;3.40;63.30;;;;;;4963683;28;20106;-81
2021/03/24 05:30:18;;;;;;;13.47;4.77;;;3.40;63.30;;;;;;4969654;28;20046;-80
2021/03/24 05:32:47;;;;;;;10.30;4.47;;;3.40;63.20;;;;;;4965399;28;20027;-81
2021/03/24 05:35:26;;;;;;;7.37;4.40;;;3.40;63.30;;;;;;4967101;28;20051;-82
2021/03/24 05:37:53;;;;;;;10.20;4.70;;;3.40;63.20;;;;;;4966360;28;20038;-82
2021/03/24 05:40:32;;;;;;;7.40;4.13;;;3.40;63.10;;;;;;4953478;28;20032;-80
2021/03/24 05:43:16;;;;;;;7.73;4.87;;;3.40;63.40;;;;;;4971640;28;20035;-80
2021/03/24 05:46:10;;;;;;;9.50;5.80;;;3.40;63.50;;;;;;4964992;28;20034;-81
2021/03/24 05:48:57;;;;;;;9.13;5.33;;;3.50;63.40;;;;;;4965219;28;20976;-81
2021/03/24 05:51:27;;;;;;;15.70;6.50;;;3.50;63.50;;;;;;4967163;28;20038;-81
2021/03/24 05:54:28;;;;;;;15.07;7.87;;;3.50;63.30;;;;;;4978507;28;20038;-80
2021/03/24 05:57:17;;;;;;;22.47;10.30;;;3.50;63.50;;;;;;4974474;28;20038;-81
2021/03/24 06:00:01;;;;;;;28.40;12.27;;;3.60;63.40;;;;;;4954234;28;20031;-80
2021/03/24 06:02:57;;;;;;;21.53;10.93;;;3.60;63.30;;;;;;4956697;28;20031;-81
2021/03/24 06:05:39;;;;;;;30.13;13.40;;;3.70;63.10;;;;;;4958282;28;20035;-82
2021/03/24 06:08:26;;;;;;;17.02;9.48;;;3.70;63.20;;;;;;4953918;28;20438;-81
2021/03/24 06:11:07;;;;;;;14.63;8.93;;;3.70;63.10;;;;;;4953681;28;20042;-82
2021/03/24 06:14:04;;;;;;;13.90;7.63;;;3.70;62.90;;;;;;4953102;29;20031;-81
2021/03/24 06:16:35;;;;;;;15.00;7.93;;;3.70;62.90;;;;;;4961171;28;20037;-82
2021/03/24 06:19:16;;;;;;;12.73;6.33;;;3.70;62.90;;;;;;4972102;28;20047;-81
2021/03/24 06:21:41;;;;;;;12.80;7.57;;;3.70;62.90;;;;;;4953192;28;20114;-81
2021/03/24 06:24:44;;;;;;;13.57;7.43;;;3.60;62.90;;;;;;4966912;28;20117;-81
2021/03/24 06:27:35;;;;;;;15.32;7.95;;;3.50;63.20;;;;;;4972252;28;20038;-82
2021/03/24 06:30:30;;;;;;;11.10;6.83;;;3.50;63.10;;;;;;4971673;28;20190;-81
2021/03/24 06:33:21;;;;;;;14.10;7.83;;;3.50;63.20;;;;;;4978769;28;20045;-81
2021/03/24 06:36:01;;;;;;;30.97;13.43;;;3.60;63.40;;;;;;4957084;28;20067;-81
2021/03/24 06:38:30;;;;;;;20.00;11.50;;;3.60;63.30;;;;;;4964942;28;20078;-82
2021/03/24 06:41:32;;;;;;;15.87;9.60;;;3.60;63.20;;;;;;4956666;28;20035;-82
2021/03/24 06:44:20;;;;;;;14.93;9.18;;;3.70;63.30;;;;;;4955675;28;20055;-81
2021/03/24 06:46:59;;;;;;;19.40;8.43;;;3.70;63.00;;;;;;4968511;28;20042;-81
2021/03/24 06:49:40;;;;;;;15.03;6.80;;;3.70;63.20;;;;;;4969996;28;20031;-81
2021/03/24 06:52:27;;;;;;;11.77;6.13;;;3.70;63.10;;;;;;4960643;28;20069;-81
2021/03/24 06:55:30;;;;;;;11.17;6.57;;;3.80;63.20;;;;;;4961674;28;20023;-81
2021/03/24 06:58:14;;;;;;;11.70;7.32;;;3.90;63.00;;;;;;4964893;28;20039;-83
2021/03/24 07:01:18;;;;;;;13.23;7.23;;;3.90;63.10;;;;;;4971148;28;20495;-82
2021/03/24 07:04:11;;;;;;;11.85;6.85;;;4.00;63.00;;;;;;4969086;28;20518;-81
2021/03/24 07:07:06;;;;;;;16.40;8.63;;;4.00;63.10;;;;;;4957135;28;20482;-82
2021/03/24 07:09:59;;;;;;;13.77;9.43;;;4.10;63.10;;;;;;4952648;28;20031;-82
2021/03/24 07:12:30;;;;;;;17.08;10.07;;;4.10;62.90;;;;;;4971398;28;20019;-82
2021/03/24 07:15:30;;;;;;;14.17;8.67;;;4.20;62.90;;;;;;4971547;28;20666;-82
2021/03/24 07:18:07;;;;;;;13.27;8.13;;;4.20;62.70;;;;;;4965564;28;20049;-82
2021/03/24 07:21:00;;;;;;;15.97;8.40;;;4.20;62.80;;;;;;4971420;28;20093;-82
2021/03/24 07:23:46;;;;;;;12.15;8.10;;;4.20;63.00;;;;;;4962599;28;20125;-82
2021/03/24 07:26:27;;;;;;;17.47;8.30;;;4.20;63.10;;;;;;4959094;28;20054;-82
2021/03/24 07:29:11;;;;;;;14.33;7.80;;;4.20;63.00;;;;;;4972852;28;20483;-82
2021/03/24 07:32:09;;;;;;;19.93;9.10;;;4.30;63.20;;;;;;4968981;28;20038;-82
2021/03/24 07:34:41;;;;;;;15.93;8.83;;;4.30;63.30;;;;;;4959470;28;20070;-82
2021/03/24 07:37:22;;;;;;;14.67;7.53;;;4.40;63.40;;;;;;4968998;28;20023;-82
2021/03/24 07:40:09;;;;;;;11.30;7.33;;;4.50;63.40;;;;;;4967585;28;20507;-84
2021/03/24 07:42:47;;;;;;;14.80;7.87;;;4.50;63.30;;;;;;4958377;28;20027;-84
2021/03/24 07:45:22;;;;;;;16.57;8.20;;;4.70;63.20;;;;;;4964325;28;20023;-84
2021/03/24 07:48:25;;;;;;;15.30;7.40;;;4.80;63.10;;;;;;4967465;28;20023;-84
2021/03/24 07:51:24;;;;;;;12.93;7.97;;;4.80;63.20;;;;;;4964430;28;20511;-84
2021/03/24 07:53:50;;;;;;;17.00;8.43;;;5.00;63.00;;;;;;4962799;28;20043;-84
2021/03/24 07:56:32;;;;;;;16.37;7.33;;;5.20;63.00;;;;;;4953818;28;20054;-85
2021/03/24 07:59:13;;;;;;;9.87;6.00;;;5.30;63.00;;;;;;4974821;28;20030;-85
2021/03/24 08:02:21;;;;;;;7.37;4.40;;;5.50;62.50;;;;;;4974776;28;20038;-84
2021/03/24 08:05:13;;;;;;;8.17;4.47;;;5.70;62.20;;;;;;4975024;28;20031;-85
2021/03/24 08:08:09;;;;;;;9.73;4.80;;;5.80;61.30;;;;;;4966253;28;20051;-85
2021/03/24 08:11:00;;;;;;;8.93;4.40;;;5.80;60.60;;;;;;4967460;28;20027;-84
2021/03/24 08:14:02;;;;;;;8.43;4.60;;;6.00;60.80;;;;;;4963163;28;20023;-85
2021/03/24 08:17:02;;;;;;;9.53;4.57;;;6.10;60.00;;;;;;4972933;28;20429;-84
2021/03/24 08:19:37;;;;;;;7.40;3.70;;;6.30;59.80;;;;;;4964313;28;20102;-85
2021/03/24 08:22:31;;;;;;;7.43;3.80;;;6.40;59.80;;;;;;4986874;28;20061;-85
2021/03/24 08:25:09;;;;;;;9.07;4.63;;;6.60;59.40;;;;;;4974823;28;20027;-85
2021/03/24 08:27:54;;;;;;;9.63;3.57;;;6.80;59.20;;;;;;4975016;28;20117;-83
2021/03/24 08:30:25;;;;;;;7.23;3.77;;;6.90;58.90;;;;;;4971565;28;20031;-84
2021/03/24 08:33:09;;;;;;;5.37;3.40;;;7.10;58.60;;;;;;4989697;28;20095;-84
2021/03/24 08:35:38;;;;;;;9.30;4.83;;;7.20;58.10;;;;;;4978055;28;20126;-84
2021/03/24 08:38:37;;;;;;;10.37;4.50;;;7.20;57.70;;;;;;4972710;28;20041;-84
2021/03/24 08:41:19;;;;;;;8.23;4.30;;;7.40;57.60;;;;;;4966471;28;20041;-84
2021/03/24 08:43:51;;;;;;;11.35;4.35;;;7.60;57.40;;;;;;4976234;28;20022;-84
2021/03/24 08:46:28;;;;;;;9.17;3.43;;;7.90;57.20;;;;;;4961197;28;20041;-84
2021/03/24 08:49:02;;;;;;;17.73;4.73;;;8.00;56.20;;;;;;4977701;28;20031;-84
2021/03/24 08:51:40;;;;;;;5.17;3.27;;;8.00;55.50;;;;;;4955586;28;20372;-84
2021/03/24 08:54:30;;;;;;;10.70;3.63;;;7.90;55.80;;;;;;4955448;29;20121;-83
2021/03/24 08:57:08;;;;;;;9.23;4.03;;;8.10;56.00;;;;;;4967569;28;20031;-84
2021/03/24 08:59:37;;;;;;;7.00;3.63;;;8.20;55.70;;;;;;4967640;28;20026;-83
2021/03/24 09:02:33;;;;;;;4.67;3.33;;;8.40;55.40;;;;;;4974549;28;20503;-84
2021/03/24 09:05:08;;;;;;;9.17;4.17;;;8.80;54.90;;;;;;4972977;28;20026;-84
2021/03/24 09:08:05;;;;;;;10.63;4.90;;;9.10;54.70;;;;;;4970316;28;20043;-84
2021/03/24 09:10:46;;;;;;;14.93;6.53;;;9.40;54.20;;;;;;4972657;28;20570;-84
2021/03/24 09:13:27;;;;;;;8.97;4.70;;;9.50;54.00;;;;;;4970705;28;20020;-84
2021/03/24 09:16:17;;;;;;;10.10;4.53;;;9.60;53.40;;;;;;4961590;28;20024;-84
2021/03/24 09:18:47;;;;;;;10.53;4.27;;;9.80;53.10;;;;;;4954689;28;20130;-84
2021/03/24 09:21:16;;;;;;;5.53;3.90;;;10.00;52.80;;;;;;4958089;28;20427;-84
2021/03/24 09:24:35;;;;;;;12.73;4.10;;;10.10;52.30;;;;;;4966758;28;20082;-83
2021/03/24 09:27:31;;;;;;;11.03;4.10;;;10.30;52.00;;;;;;4951104;28;20035;-84
2021/03/24 09:30:21;;;;;;;7.60;3.00;;;10.30;51.40;;;;;;4971289;28;20035;-83
2021/03/24 09:33:25;;;;;;;7.43;2.70;;;10.30;51.20;;;;;;4969648;28;20026;-84
2021/03/24 09:36:19;;;;;;;7.77;3.50;;;10.30;50.90;;;;;;4963678;28;20771;-83
2021/03/24 09:38:47;;;;;;;7.73;3.60;;;10.40;51.00;;;;;;4970296;28;20375;-83
2021/03/24 09:41:21;;;;;;;8.67;4.20;;;10.40;50.80;;;;;;4972026;28;20387;-83
2021/03/24 09:43:53;;;;;;;7.83;3.40;;;10.50;50.10;;;;;;4971204;28;20497;-83
2021/03/24 09:46:42;;;;;;;7.83;3.50;;;10.50;50.40;;;;;;4969657;28;20035;-82
2021/03/24 09:49:30;;;;;;;15.30;5.23;;;10.70;50.10;;;;;;4965386;28;20541;-84
2021/03/24 09:52:43;;;;;;;10.97;4.20;;;10.90;49.70;;;;;;4965453;28;20027;-83
2021/03/24 09:55:14;;;;;;;13.38;5.10;;;11.00;49.70;;;;;;4966153;28;20466;-84
2021/03/24 09:57:42;;;;;;;11.13;5.10;;;11.20;49.90;;;;;;4982856;28;20126;-84
2021/03/24 10:00:14;;;;;;;7.53;3.43;;;11.40;49.80;;;;;;4963211;28;20037;-83
2021/03/24 10:03:03;;;;;;;14.87;4.93;;;11.60;49.20;;;;;;4974479;28;20037;-83
2021/03/24 10:05:43;;;;;;;8.87;4.60;;;11.70;49.20;;;;;;4967995;28;20035;-83
2021/03/24 10:08:16;;;;;;;13.03;4.60;;;11.90;48.90;;;;;;4971862;28;20051;-84
2021/03/24 10:10:43;;;;;;;;;;;11.90;48.80;;;;;;4964831;28;20034;-84
2021/03/24 10:13:25;;;;;;;10.80;4.50;;;12.00;48.90;;;;;;4955651;28;19906;-84
2021/03/24 10:16:11;;;;;;;15.00;4.35;;;12.10;48.20;;;;;;4961061;28;20035;-84
2021/03/24 10:18:52;;;;;;;12.53;4.07;;;12.10;48.00;;;;;;4970194;28;20035;-84
2021/03/24 10:21:39;;;;;;;9.57;4.97;;;12.20;47.60;;;;;;4958874;28;20049;-85
2021/03/24 10:24:14;;;;;;;11.23;4.40;;;12.30;46.90;;;;;;4966012;28;20031;-87
2021/03/24 10:26:55;;;;;;;11.60;5.73;;;12.40;47.00;;;;;;4958912;28;20067;-84
2021/03/24 10:29:36;;;;;;;23.93;9.60;;;12.50;47.00;;;;;;4972856;28;20031;-83
2021/03/24 10:32:07;;;;;;;11.63;5.43;;;12.80;47.00;;;;;;4961446;28;20038;-83
2021/03/24 10:34:42;;;;;;;13.97;4.87;;;13.10;46.50;;;;;;4970279;28;20046;-84
2021/03/24 10:37:29;;;;;;;15.63;7.07;;;13.10;46.00;;;;;;4983163;28;20038;-84
2021/03/24 10:40:01;;;;;;;22.57;9.47;;;13.10;45.80;;;;;;4956709;28;20252;-83
2021/03/24 10:42:43;;;;;;;8.95;4.68;;;13.20;46.10;;;;;;4977176;28;20030;-83
2021/03/24 10:45:26;;;;;;;9.83;4.23;;;13.40;45.40;;;;;;4966171;28;20391;-84
2021/03/24 10:48:17;;;;;;;7.00;4.18;;;13.20;44.50;;;;;;4969854;28;20110;-84
2021/03/24 10:50:56;;;;;;;8.73;4.77;;;13.40;44.50;;;;;;4963406;28;20023;-83
2021/03/24 10:53:25;;;;;;;9.47;5.17;;;13.50;44.30;;;;;;4954165;28;20032;-83
2021/03/24 10:56:10;;;;;;;8.17;3.67;;;13.70;44.00;;;;;;4969658;28;20087;-83
2021/03/24 10:58:44;;;;;;;8.00;4.13;;;13.70;43.30;;;;;;4964370;28;20050;-83
2021/03/24 11:01:32;;;;;;;16.23;3.97;;;13.80;43.50;;;;;;4970323;28;20062;-83
2021/03/24 11:04:26;;;;;;;12.13;5.13;;;13.90;42.80;;;;;;4968449;28;20031;-83
2021/03/24 11:07:10;;;;;;;19.00;4.40;;;13.90;42.70;;;;;;4971545;28;20070;-83
2021/03/24 11:09:43;;;;;;;4.97;3.10;;;14.10;42.70;;;;;;4965225;28;20094;-83
2021/03/24 11:12:12;;;;;;;6.33;2.67;;;14.20;42.30;;;;;;4976880;28;20114;-83
2021/03/24 11:14:53;;;;;;;7.90;3.87;;;14.20;41.80;;;;;;4960028;28;20431;-83
2021/03/24 11:17:25;;;;;;;10.47;3.67;;;14.20;41.60;;;;;;4970211;28;20033;-85
2021/03/24 11:20:01;;;;;;;9.02;4.00;;;14.20;41.70;;;;;;4966352;28;20027;-84
2021/03/24 11:22:58;;;;;;;8.30;4.40;;;14.30;41.30;;;;;;4972946;28;20042;-83
2021/03/24 11:25:35;;;;;;;12.93;3.53;;;14.50;41.70;;;;;;4981814;28;20071;-84
2021/03/24 11:28:21;;;;;;;8.17;3.80;;;14.70;41.20;;;;;;4969791;28;20031;-84
2021/03/24 11:31:02;;;;;;;9.00;3.70;;;14.80;41.00;;;;;;4988573;28;20399;-84
2021/03/24 11:33:51;;;;;;;7.65;3.28;;;15.00;40.90;;;;;;4957177;28;20064;-84
2021/03/24 11:36:20;;;;;;;8.53;3.80;;;15.10;40.50;;;;;;4967141;28;20118;-84
2021/03/24 11:38:55;;;;;;;14.38;4.35;;;15.10;40.20;;;;;;4957640;28;20035;-84
2021/03/24 11:41:23;;;;;;;8.47;3.60;;;15.10;40.00;;;;;;4975378;28;20038;-84
2021/03/24 11:44:06;;;;;;;8.07;3.72;;;15.10;40.20;;;;;;4988243;28;20509;-84
2021/03/24 11:46:40;;;;;;;11.00;4.47;;;15.20;38.90;;;;;;4975712;28;20050;-84
2021/03/24 11:49:11;;;;;;;6.80;3.40;;;15.20;39.70;;;;;;4973540;28;20383;-84
2021/03/24 11:51:58;;;;;;;5.32;3.08;;;15.40;39.50;;;;;;4969340;28;20018;-84
2021/03/24 11:54:36;;;;;;;6.50;2.97;;;15.50;39.40;;;;;;4967879;28;20410;-84
2021/03/24 11:57:30;;;;;;;6.47;3.10;;;15.50;39.40;;;;;;4964235;28;20035;-84
2021/03/24 12:00:13;;;;;;;8.23;3.17;;;15.70;39.50;;;;;;4971360;28;20352;-84
2021/03/24 12:03:16;;;;;;;7.97;3.17;;;15.80;39.40;;;;;;4966602;28;20034;-84
2021/03/24 12:06:05;;;;;;;5.60;3.00;;;16.00;39.20;;;;;;4968797;28;20111;-84
2021/03/24 12:08:47;;;;;;;8.20;2.30;;;16.00;38.50;;;;;;4965307;28;20396;-84
2021/03/24 12:11:21;;;;;;;4.55;2.83;;;15.90;38.50;;;;;;4964745;28;20577;-85
2021/03/24 12:13:48;;;;;;;6.93;2.85;;;16.00;38.70;;;;;;4967658;28;20050;-84
2021/03/24 12:16:17;;;;;;;6.63;3.45;;;16.10;38.40;;;;;;4970119;28;20026;-82
2021/03/24 12:18:46;;;;;;;8.88;4.15;;;16.10;38.10;;;;;;4969975;28;20027;-82
2021/03/24 12:21:28;;;;;;;5.63;2.97;;;16.00;37.50;;;;;;4973993;28;20058;-85
2021/03/24 12:23:58;;;;;;;8.27;2.85;;;16.00;38.00;;;;;;4956114;28;20060;-83
2021/03/24 12:26:25;;;;;;;7.93;3.00;;;16.10;38.10;;;;;;4974640;28;20475;-84
2021/03/24 12:28:55;;;;;;;5.75;2.60;;;16.20;37.90;;;;;;4975846;28;20524;-84
2021/03/24 12:31:23;;;;;;;9.27;2.55;;;16.30;37.60;;;;;;4974578;28;20026;-84
2021/03/24 12:33:53;;;;;;;8.32;2.78;;;16.40;37.20;;;;;;4973275;28;20077;-84
2021/03/24 12:36:22;;;;;;;7.25;3.00;;;16.50;37.40;;;;;;4966700;28;20061;-85
2021/03/24 12:38:53;;;;;;;10.20;2.97;;;16.60;37.20;;;;;;4960602;28;20098;-85
2021/03/24 12:41:51;;;;;;;6.00;2.78;;;16.70;37.10;;;;;;4970709;28;20455;-84
2021/03/24 12:44:24;;;;;;;7.90;3.08;;;16.80;36.60;;;;;;4951720;28;20059;-84
2021/03/24 12:47:00;;;;;;;;;;;16.80;36.40;;;;;;4971083;28;20046;-84
2021/03/24 12:49:33;;;;;;;4.70;2.47;;;16.80;36.70;;;;;;4985099;28;19918;-84
2021/03/24 12:52:08;;;;;;;9.40;3.08;;;16.80;36.50;;;;;;4971538;28;20611;-85
2021/03/24 12:54:34;;;;;;;4.78;2.13;;;16.90;36.10;;;;;;4986486;28;20436;-84
2021/03/24 12:57:29;;;;;;;5.25;2.38;;;16.90;36.00;;;;;;4972647;28;20125;-84
2021/03/24 13:00:28;;;;;;;5.70;2.33;;;16.90;35.60;;;;;;4969513;28;20043;-84
2021/03/24 13:03:17;;;;;;;3.85;1.95;;;16.90;36.10;;;;;;4964890;28;20391;-84
2021/03/24 13:05:50;;;;;;;3.83;1.85;;;17.00;36.00;;;;;;4968295;28;20554;-84
2021/03/24 13:08:46;;;;;;;8.55;1.92;;;17.00;35.90;;;;;;4966822;28;20548;-84
2021/03/24 13:11:32;;;;;;;7.80;2.50;;;16.90;35.70;;;;;;4980141;28;20069;-84
2021/03/24 13:14:25;;;;;;;5.25;2.17;;;16.90;35.70;;;;;;4961317;28;20034;-84
2021/03/24 13:17:08;;;;;;;6.25;2.47;;;17.00;35.90;;;;;;4972896;28;20026;-84
2021/03/24 13:19:44;;;;;;;10.23;2.65;;;16.90;36.30;;;;;;4969576;28;20035;-84
2021/03/24 13:22:16;;;;;;;4.70;2.13;;;16.90;36.40;;;;;;4974630;28;20079;-84
2021/03/24 13:25:06;;;;;;;4.40;2.40;;;16.90;36.60;;;;;;4970486;28;20398;-84
2021/03/24 13:27:50;;;;;;;5.15;2.60;;;17.00;36.50;;;;;;4979212;28;20067;-84
2021/03/24 13:30:19;;;;;;;6.00;2.42;;;17.00;36.60;;;;;;4968924;28;20491;-84
2021/03/24 13:33:11;;;;;;;6.43;2.65;;;17.00;36.70;;;;;;4965691;28;20070;-84
2021/03/24 13:36:11;;;;;;;4.80;2.80;;;17.00;36.20;;;;;;4973311;28;20023;-84
2021/03/24 13:38:48;;;;;;;5.35;3.00;;;17.00;36.20;;;;;;4979576;28;20035;-83
2021/03/24 13:41:16;;;;;;;3.97;2.80;;;16.90;36.00;;;;;;4982305;28;20077;-84
2021/03/24 13:43:57;;;;;;;9.20;2.83;;;16.90;36.40;;;;;;4974021;28;20053;-84